Terminal Aerodrome Forecast
Issued by NWS

Home | Current Version | Previous Version | Graphics & Text | Print | Product List | Glossary On
Versions: 1 2 3 4 5 6 7 8 9 10 11 12 13 14 15 16 17 18 19 20 21
000
FTUS43 KABR 200522
TAFPIR
TAF
KPIR 200522Z 2006/2106 30005KT P6SM OVC200
     FM202100 31006KT P6SM OVC050
     FM210000 32005KT P6SM -RA OVC035
     FM210100 32005KT P6SM -SN OVC035
     FM210300 32004KT 5SM -SN OVC030=

USA.gov is the U.S. government's official web portal to all federal, state and local government web resources and services.